Wetterdaten: Woche 01.09.14 - 07.09.14 (KW36)
Datum Zeit Temp. A. Feuchte A. Luftdruck Regen Wind Richtung Taupunkt Windchill Windben
01.09.2014 00:00 14,3 C 84 % 1011,3 hPa 0,3 l/m 7,4 km/h N 11,6 C 13,3 C 23,7 km/h
01.09.2014 01:00 13,5 C 83 % 1011,0 hPa 0,0 l/m 12,0 km/h N 10,6 C 10,6 C 34,6 km/h
01.09.2014 02:00 13,5 C 84 % 1010,6 hPa 0,3 l/m 13,5 km/h N 10,8 C 9,9 C 33,0 km/h
01.09.2014 03:00 13,4 C 83 % 1010,8 hPa 0,0 l/m 10,4 km/h N 10,6 C 11,3 C 29,0 km/h
01.09.2014 04:00 12,9 C 84 % 1011,3 hPa 1,3 l/m 8,1 km/h N 10,3 C 11,9 C 22,9 km/h
01.09.2014 05:00 12,6 C 84 % 1011,1 hPa 1,0 l/m 9,4 km/h N 10,0 C 10,8 C 24,9 km/h
01.09.2014 06:00 12,6 C 83 % 1011,3 hPa 1,3 l/m 8,9 km/h N 9,8 C 11,1 C 22,9 km/h
01.09.2014 07:00 12,8 C 83 % 1011,5 hPa 1,3 l/m 9,0 km/h N 9,9 C 11,2 C 24,1 km/h
01.09.2014 08:00 13,0 C 83 % 1011,5 hPa 1,0 l/m 7,9 km/h N 10,1 C 12,0 C 22,9 km/h
01.09.2014 09:00 13,2 C 82 % 1011,7 hPa 1,3 l/m 7,3 km/h N 10,2 C 12,6 C 22,1 km/h
01.09.2014 10:00 13,4 C 82 % 1011,9 hPa 1,8 l/m 9,4 km/h N 10,3 C 11,6 C 22,5 km/h
01.09.2014 11:00 13,6 C 83 % 1012,0 hPa 1,3 l/m 10,3 km/h N 10,7 C 11,4 C 26,1 km/h
01.09.2014 12:00 13,7 C 83 % 1012,5 hPa 1,8 l/m 10,3 km/h N 10,8 C 11,6 C 25,3 km/h
01.09.2014 13:00 14,0 C 82 % 1012,3 hPa 1,0 l/m 11,0 km/h N 11,0 C 11,6 C 26,1 km/h
01.09.2014 14:00 14,3 C 83 % 1012,6 hPa 1,3 l/m 10,2 km/h N 11,4 C 12,3 C 23,7 km/h
01.09.2014 15:00 14,4 C 83 % 1012,6 hPa 0,3 l/m 10,0 km/h N 11,6 C 12,5 C 27,8 km/h
01.09.2014 16:00 14,4 C 83 % 1013,0 hPa 0,8 l/m 10,6 km/h N 11,6 C 12,2 C 25,3 km/h
01.09.2014 17:00 14,4 C 83 % 1013,3 hPa 0,8 l/m 11,0 km/h N 11,5 C 12,0 C 28,2 km/h
01.09.2014 18:00 14,4 C 83 % 1013,7 hPa 1,0 l/m 13,3 km/h N 11,5 C 11,1 C 32,6 km/h
01.09.2014 19:00 14,4 C 83 % 1013,8 hPa 0,8 l/m 13,6 km/h N 11,5 C 11,0 C 33,0 km/h
01.09.2014 20:00 14,3 C 83 % 1014,3 hPa 0,0 l/m 12,4 km/h N 11,5 C 11,4 C 29,4 km/h
01.09.2014 21:00 14,2 C 83 % 1014,8 hPa 0,3 l/m 12,9 km/h N 11,4 C 11,0 C 29,4 km/h
01.09.2014 22:00 14,3 C 84 % 1015,0 hPa 0,0 l/m 13,3 km/h N 11,7 C 11,0 C 33,0 km/h
01.09.2014 23:00 14,2 C 84 % 1014,8 hPa 0,0 l/m 13,8 km/h N 11,6 C 10,7 C 34,2 km/h
02.09.2014 00:00 14,1 C 85 % 1015,0 hPa 0,0 l/m 13,9 km/h N 11,6 C 10,5 C 35,0 km/h
02.09.2014 01:00 13,9 C 85 % 1015,1 hPa 0,0 l/m 14,5 km/h N 11,4 C 10,1 C 36,2 km/h
02.09.2014 02:00 14,0 C 85 % 1014,8 hPa 0,0 l/m 15,1 km/h N 11,5 C 10,0 C 35,8 km/h
02.09.2014 03:00 13,9 C 85 % 1014,8 hPa 0,0 l/m 13,0 km/h N 11,4 C 10,6 C 29,8 km/h
02.09.2014 04:00 13,9 C 85 % 1014,8 hPa 0,0 l/m 12,7 km/h N 11,4 C 10,7 C 29,8 km/h
02.09.2014 05:00 13,9 C 85 % 1014,7 hPa 0,0 l/m 14,3 km/h N 11,4 C 10,1 C 34,2 km/h
02.09.2014 06:00 13,7 C 84 % 1014,9 hPa 0,0 l/m 11,3 km/h N 11,1 C 11,1 C 28,6 km/h
02.09.2014 07:00 13,7 C 84 % 1015,0 hPa 0,0 l/m 12,3 km/h N 11,1 C 10,7 C 30,6 km/h
02.09.2014 08:00 13,9 C 85 % 1015,1 hPa 0,0 l/m 14,1 km/h N 11,4 C 10,2 C 31,0 km/h
02.09.2014 09:00 13,9 C 85 % 1015,3 hPa 0,0 l/m 12,1 km/h N 11,4 C 11,0 C 27,8 km/h
02.09.2014 10:00 14,0 C 85 % 1015,8 hPa 0,5 l/m 10,5 km/h N 11,4 C 11,8 C 27,0 km/h
02.09.2014 11:00 13,9 C 84 % 1016,1 hPa 1,8 l/m 9,1 km/h N 11,2 C 12,4 C 23,7 km/h
02.09.2014 12:00 14,2 C 83 % 1016,0 hPa 1,8 l/m 9,5 km/h N 11,3 C 12,4 C 25,8 km/h
02.09.2014 13:00 14,6 C 84 % 1016,1 hPa 0,5 l/m 10,8 km/h N 11,9 C 12,3 C 27,4 km/h
02.09.2014 14:00 14,7 C 85 % 1016,3 hPa 0,8 l/m 12,4 km/h N 12,2 C 11,8 C 27,0 km/h
02.09.2014 15:00 14,8 C 84 % 1016,1 hPa 0,5 l/m 9,5 km/h N 12,2 C 13,2 C 24,1 km/h
02.09.2014 16:00 14,9 C 84 % 1015,9 hPa 0,8 l/m 9,0 km/h N 12,2 C 13,5 C 22,9 km/h
02.09.2014 17:00 14,9 C 85 % 1016,1 hPa 0,0 l/m 7,1 km/h N 12,3 C 14,4 C 20,5 km/h
02.09.2014 18:00 14,8 C 84 % 1016,3 hPa 0,3 l/m 7,0 km/h N 12,1 C 14,4 C 21,7 km/h
02.09.2014 19:00 14,6 C 83 % 1016,6 hPa 1,0 l/m 6,4 km/h N 11,8 C 14,5 C 18,9 km/h
02.09.2014 20:00 14,6 C 82 % 1017,0 hPa 0,3 l/m 6,0 km/h N 11,6 C 14,6 C 20,5 km/h
02.09.2014 21:00 14,8 C 84 % 1017,3 hPa 0,0 l/m 8,3 km/h N 12,1 C 13,8 C 23,7 km/h
02.09.2014 22:00 14,9 C 84 % 1017,5 hPa 0,0 l/m 8,6 km/h N 12,2 C 13,7 C 24,1 km/h
02.09.2014 23:00 14,9 C 85 % 1017,5 hPa 0,0 l/m 8,3 km/h N 12,3 C 13,9 C 20,5 km/h
03.09.2014 00:00 14,9 C 84 % 1017,3 hPa 0,0 l/m 7,8 km/h N 12,2 C 14,2 C 20,5 km/h
03.09.2014 01:00 14,9 C 84 % 1017,4 hPa 0,0 l/m 7,4 km/h N 12,2 C 14,3 C 19,3 km/h
03.09.2014 02:00 14,9 C 85 % 1017,4 hPa 0,0 l/m 6,8 km/h N 12,4 C 14,6 C 19,7 km/h
03.09.2014 03:00 14,9 C 85 % 1017,2 hPa 0,0 l/m 6,7 km/h N 12,4 C 14,6 C 19,7 km/h
03.09.2014 04:00 14,9 C 85 % 1017,1 hPa 0,0 l/m 7,3 km/h N 12,4 C 14,3 C 18,9 km/h
03.09.2014 05:00 14,9 C 85 % 1017,1 hPa 0,0 l/m 8,3 km/h N 12,4 C 13,9 C 20,5 km/h
03.09.2014 06:00 14,9 C 84 % 1017,2 hPa 0,0 l/m 7,4 km/h N 12,2 C 14,3 C 20,9 km/h
03.09.2014 07:00 14,9 C 85 % 1017,3 hPa 0,0 l/m 7,6 km/h N 12,4 C 14,2 C 20,5 km/h
03.09.2014 08:00 15,1 C 85 % 1017,4 hPa 0,0 l/m 7,2 km/h N 12,6 C 14,6 C 18,9 km/h
03.09.2014 09:00 15,3 C 85 % 1017,5 hPa 0,0 l/m 9,3 km/h N 12,8 C 13,8 C 22,1 km/h
03.09.2014 10:00 15,3 C 85 % 1018,2 hPa 0,0 l/m 5,8 km/h N 12,8 C 15,3 C 18,5 km/h
03.09.2014 11:00 15,6 C 85 % 1018,3 hPa 0,0 l/m 6,3 km/h N 13,0 C 15,5 C 16,9 km/h
03.09.2014 12:00 16,2 C 85 % 1017,7 hPa 0,0 l/m 6,9 km/h N 13,6 C 15,8 C 21,3 km/h
03.09.2014 13:00 16,7 C 85 % 1017,7 hPa 0,0 l/m 5,1 km/h N 14,1 C 16,7 C 15,7 km/h
03.09.2014 14:00 17,4 C 84 % 1017,5 hPa 0,0 l/m 6,8 km/h N 14,5 C 17,0 C 20,5 km/h
03.09.2014 15:00 17,6 C 83 % 1017,3 hPa 0,0 l/m 7,1 km/h N 14,6 C 17,3 C 19,7 km/h
03.09.2014 16:00 17,8 C 82 % 1016,9 hPa 0,0 l/m 9,2 km/h N 14,6 C 16,6 C 24,1 km/h
03.09.2014 17:00 17,6 C 82 % 1016,7 hPa 0,0 l/m 8,4 km/h N 14,5 C 16,7 C 23,7 km/h
03.09.2014 18:00 17,4 C 82 % 1016,8 hPa 0,0 l/m 8,2 km/h N 14,3 C 16,5 C 20,5 km/h
03.09.2014 19:00 17,3 C 82 % 1017,2 hPa 0,0 l/m 7,0 km/h N 14,2 C 16,9 C 20,1 km/h
03.09.2014 20:00 17,1 C 83 % 1017,7 hPa 0,0 l/m 5,9 km/h N 14,1 C 17,1 C 19,3 km/h
03.09.2014 21:00 16,9 C 83 % 1018,2 hPa 0,0 l/m 6,8 km/h N 14,0 C 16,6 C 20,9 km/h
03.09.2014 22:00 16,7 C 84 % 1018,2 hPa 0,0 l/m 6,4 km/h N 13,9 C 16,6 C 16,9 km/h
03.09.2014 23:00 16,5 C 84 % 1018,1 hPa 0,0 l/m 5,0 km/h N 13,7 C 16,5 C 16,5 km/h
04.09.2014 00:00 16,5 C 84 % 1018,1 hPa 0,0 l/m 4,5 km/h N 13,8 C 16,5 C 15,3 km/h
04.09.2014 01:00 16,3 C 84 % 1017,9 hPa 0,0 l/m 4,2 km/h N 13,6 C 16,3 C 10,9 km/h
04.09.2014 02:00 15,9 C 85 % 1017,7 hPa 0,0 l/m 3,1 km/h N 13,3 C 15,9 C 9,3 km/h
04.09.2014 03:00 15,8 C 85 % 1017,8 hPa 0,0 l/m 2,9 km/h N 13,3 C 15,8 C 9,3 km/h
04.09.2014 04:00 15,7 C 85 % 1017,7 hPa 0,0 l/m 3,0 km/h N 13,2 C 15,7 C 8,4 km/h
04.09.2014 05:00 15,5 C 85 % 1017,7 hPa 0,0 l/m 2,3 km/h N 13,0 C 15,5 C 7,2 km/h
04.09.2014 06:00 15,5 C 85 % 1017,8 hPa 0,0 l/m 1,9 km/h N 13,0 C 15,5 C 8,0 km/h
04.09.2014 07:00 16,0 C 84 % 1017,8 hPa 0,0 l/m 2,7 km/h N 13,3 C 16,0 C 8,4 km/h
04.09.2014 08:00 17,0 C 85 % 1017,9 hPa 0,0 l/m 3,5 km/h N 14,4 C 17,0 C 13,3 km/h
04.09.2014 09:00 17,8 C 83 % 1017,8 hPa 0,0 l/m 6,1 km/h N 14,8 C 17,7 C 16,1 km/h
04.09.2014 10:00 18,9 C 81 % 1018,0 hPa 0,0 l/m 6,4 km/h N 15,6 C 18,8 C 18,1 km/h
04.09.2014 11:00 20,2 C 78 % 1017,8 hPa 0,0 l/m 5,1 km/h N 16,3 C 20,2 C 16,5 km/h
04.09.2014 12:00 21,4 C 76 % 1017,2 hPa 0,0 l/m 4,8 km/h N 16,9 C 21,4 C 15,7 km/h
04.09.2014 13:00 22,6 C 72 % 1017,0 hPa 0,0 l/m 3,8 km/h N 17,2 C 22,6 C 12,5 km/h
04.09.2014 14:00 23,2 C 70 % 1016,9 hPa 0,0 l/m 2,5 km/h N 17,4 C 23,2 C 9,7 km/h
04.09.2014 15:00 23,4 C 71 % 1016,6 hPa 0,0 l/m 3,6 km/h N 17,8 C 23,4 C 12,5 km/h
04.09.2014 16:00 23,8 C 71 % 1016,3 hPa 0,0 l/m 3,0 km/h N 18,3 C 23,8 C 12,9 km/h
04.09.2014 17:00 23,4 C 74 % 1016,1 hPa 0,0 l/m 2,0 km/h N 18,5 C 23,4 C 8,9 km/h
04.09.2014 18:00 22,8 C 77 % 1016,1 hPa 0,0 l/m 0,4 km/h N 18,5 C 22,8 C 4,4 km/h
04.09.2014 19:00 21,8 C 79 % 1016,2 hPa 0,0 l/m 0,1 km/h N 18,0 C 21,8 C 1,6 km/h
04.09.2014 20:00 20,5 C 81 % 1016,6 hPa 0,0 l/m 0,0 km/h N 17,1 C 20,5 C 0,4 km/h
04.09.2014 21:00 19,2 C 84 % 1016,8 hPa 0,0 l/m 0,0 km/h N 16,3 C 19,2 C 0,0 km/h
04.09.2014 22:00 18,0 C 84 % 1016,8 hPa 0,0 l/m 0,0 km/h N 15,3 C 18,0 C 0,0 km/h
04.09.2014 23:00 17,3 C 84 % 1016,8 hPa 0,0 l/m 0,0 km/h N 14,5 C 17,3 C 0,0 km/h
05.09.2014 00:00 16,8 C 83 % 1016,8 hPa 0,0 l/m 0,0 km/h N 13,8 C 16,8 C 0,0 km/h
05.09.2014 01:00 16,8 C 82 % 1016,6 hPa 0,0 l/m 0,0 km/h N 13,7 C 16,8 C 0,0 km/h
05.09.2014 02:00 16,7 C 81 % 1016,4 hPa 0,0 l/m 0,0 km/h N 13,4 C 16,7 C 0,0 km/h
05.09.2014 03:00 16,5 C 81 % 1016,2 hPa 0,0 l/m 0,0 km/h N 13,2 C 16,5 C 0,0 km/h
05.09.2014 04:00 16,7 C 80 % 1016,0 hPa 0,0 l/m 0,0 km/h N 13,3 C 16,7 C 0,0 km/h
05.09.2014 05:00 16,7 C 80 % 1015,9 hPa 0,0 l/m 0,0 km/h N 13,2 C 16,7 C 0,0 km/h
05.09.2014 06:00 16,7 C 79 % 1015,6 hPa 0,0 l/m 0,2 km/h N 13,0 C 16,7 C 2,0 km/h
05.09.2014 07:00 16,8 C 78 % 1015,8 hPa 0,0 l/m 0,0 km/h N 13,0 C 16,8 C 0,0 km/h
05.09.2014 08:00 17,8 C 77 % 1016,0 hPa 0,0 l/m 0,1 km/h N 13,7 C 17,8 C 2,0 km/h
05.09.2014 09:00 19,4 C 80 % 1016,0 hPa 0,0 l/m 0,2 km/h N 15,9 C 19,4 C 2,4 km/h
05.09.2014 10:00 21,9 C 75 % 1015,9 hPa 0,0 l/m 0,3 km/h N 17,3 C 21,9 C 2,8 km/h
05.09.2014 11:00 23,4 C 70 % 1015,6 hPa 0,0 l/m 1,2 km/h N 17,6 C 23,4 C 7,6 km/h
05.09.2014 12:00 24,5 C 66 % 1015,2 hPa 0,0 l/m 1,0 km/h N 17,6 C 24,5 C 6,4 km/h
05.09.2014 13:00 24,9 C 63 % 1014,8 hPa 0,0 l/m 1,0 km/h N 17,2 C 24,9 C 6,4 km/h
05.09.2014 14:00 25,3 C 63 % 1014,4 hPa 0,0 l/m 1,6 km/h N 17,6 C 25,3 C 8,9 km/h
05.09.2014 15:00 24,8 C 64 % 1013,8 hPa 0,0 l/m 1,3 km/h N 17,5 C 24,8 C 8,1 km/h
05.09.2014 16:00 24,7 C 64 % 1013,2 hPa 0,0 l/m 0,6 km/h N 17,4 C 24,7 C 6,4 km/h
05.09.2014 17:00 24,6 C 62 % 1012,9 hPa 0,0 l/m 0,6 km/h N 16,8 C 24,6 C 6,4 km/h
05.09.2014 18:00 24,2 C 66 % 1012,8 hPa 0,0 l/m 0,1 km/h N 17,3 C 24,2 C 2,4 km/h
05.09.2014 19:00 22,4 C 72 % 1012,9 hPa 0,0 l/m 0,0 km/h N 17,1 C 22,4 C 0,0 km/h
05.09.2014 20:00 20,1 C 79 % 1013,3 hPa 0,0 l/m 0,0 km/h N 16,3 C 20,1 C 0,4 km/h
05.09.2014 21:00 18,5 C 82 % 1013,3 hPa 0,0 l/m 0,1 km/h N 15,4 C 18,5 C 2,8 km/h
05.09.2014 22:00 17,7 C 84 % 1013,3 hPa 0,0 l/m 0,0 km/h N 14,8 C 17,7 C 1,6 km/h
05.09.2014 23:00 17,0 C 84 % 1013,5 hPa 0,0 l/m 0,0 km/h N 14,3 C 17,0 C 1,2 km/h
06.09.2014 00:00 16,3 C 84 % 1013,6 hPa 0,0 l/m 0,0 km/h N 13,6 C 16,3 C 0,4 km/h
06.09.2014 01:00 15,9 C 83 % 1013,5 hPa 0,0 l/m 0,0 km/h N 13,0 C 15,9 C 0,4 km/h
06.09.2014 02:00 15,7 C 82 % 1013,5 hPa 0,0 l/m 0,0 km/h N 12,7 C 15,7 C 0,4 km/h
06.09.2014 03:00 16,0 C 81 % 1013,4 hPa 0,0 l/m 0,0 km/h N 12,8 C 16,0 C 0,0 km/h
06.09.2014 04:00 16,0 C 81 % 1013,3 hPa 0,0 l/m 0,0 km/h N 12,7 C 16,0 C 0,4 km/h
06.09.2014 05:00 16,2 C 80 % 1013,2 hPa 0,0 l/m 0,0 km/h N 12,7 C 16,2 C 0,0 km/h
06.09.2014 06:00 16,2 C 80 % 1013,2 hPa 0,0 l/m 0,0 km/h N 12,7 C 16,2 C 0,0 km/h
06.09.2014 07:00 16,4 C 80 % 1013,4 hPa 0,0 l/m 0,0 km/h N 12,8 C 16,4 C 0,0 km/h
06.09.2014 08:00 17,1 C 79 % 1013,8 hPa 0,0 l/m 0,0 km/h N 13,3 C 17,1 C 0,4 km/h
06.09.2014 09:00 17,9 C 80 % 1014,2 hPa 0,0 l/m 0,6 km/h N 14,3 C 17,9 C 5,2 km/h
06.09.2014 10:00 20,8 C 77 % 1014,1 hPa 0,0 l/m 2,7 km/h N 16,6 C 20,8 C 12,5 km/h
06.09.2014 11:00 21,4 C 72 % 1014,3 hPa 0,0 l/m 3,2 km/h N 16,0 C 21,4 C 12,1 km/h
06.09.2014 12:00 21,0 C 74 % 1014,5 hPa 0,0 l/m 2,8 km/h N 16,1 C 21,0 C 9,3 km/h
06.09.2014 13:00 20,7 C 74 % 1014,4 hPa 0,0 l/m 2,7 km/h N 16,0 C 20,7 C 9,3 km/h
06.09.2014 14:00 21,6 C 72 % 1014,0 hPa 0,0 l/m 2,6 km/h N 16,4 C 21,6 C 9,3 km/h
06.09.2014 15:00 21,9 C 70 % 1013,5 hPa 0,0 l/m 2,4 km/h N 16,1 C 21,9 C 10,1 km/h
06.09.2014 16:00 22,0 C 69 % 1013,1 hPa 0,0 l/m 2,7 km/h N 16,0 C 22,0 C 10,1 km/h
06.09.2014 17:00 21,5 C 72 % 1012,9 hPa 0,0 l/m 1,5 km/h N 16,2 C 21,5 C 8,0 km/h
06.09.2014 18:00 21,1 C 71 % 1012,9 hPa 0,0 l/m 1,1 km/h N 15,6 C 21,1 C 6,0 km/h
06.09.2014 19:00 20,3 C 71 % 1013,2 hPa 0,0 l/m 0,1 km/h N 14,9 C 20,3 C 2,0 km/h
06.09.2014 20:00 18,2 C 77 % 1013,5 hPa 0,0 l/m 0,0 km/h N 14,2 C 18,2 C 0,0 km/h
06.09.2014 21:00 16,4 C 81 % 1013,9 hPa 0,0 l/m 0,0 km/h N 13,0 C 16,4 C 0,0 km/h
06.09.2014 22:00 15,3 C 84 % 1014,0 hPa 0,0 l/m 0,0 km/h N 12,5 C 15,3 C 0,0 km/h
06.09.2014 23:00 14,6 C 84 % 1014,1 hPa 0,0 l/m 0,0 km/h N 11,9 C 14,6 C 0,0 km/h
07.09.2014 00:00 14,5 C 84 % 1014,0 hPa 0,0 l/m 0,0 km/h N 11,7 C 14,5 C 0,0 km/h
07.09.2014 01:00 14,6 C 83 % 1013,9 hPa 0,0 l/m 0,0 km/h N 11,7 C 14,6 C 0,0 km/h
07.09.2014 02:00 14,5 C 82 % 1013,9 hPa 0,0 l/m 0,2 km/h N 11,5 C 14,5 C 1,6 km/h
07.09.2014 03:00 14,4 C 82 % 1013,7 hPa 0,0 l/m 0,0 km/h N 11,3 C 14,4 C 0,0 km/h
07.09.2014 04:00 14,1 C 82 % 1013,6 hPa 0,0 l/m 0,0 km/h N 11,0 C 14,1 C 0,0 km/h
07.09.2014 05:00 13,8 C 82 % 1013,5 hPa 0,0 l/m 0,0 km/h N 10,7 C 13,8 C 0,0 km/h
07.09.2014 06:00 13,7 C 81 % 1013,7 hPa 0,0 l/m 0,0 km/h N 10,5 C 13,7 C 0,0 km/h
07.09.2014 07:00 14,3 C 80 % 1014,0 hPa 0,0 l/m 0,0 km/h N 10,8 C 14,3 C 0,0 km/h
07.09.2014 08:00 15,6 C 79 % 1014,3 hPa 0,0 l/m 0,2 km/h N 11,8 C 15,6 C 1,6 km/h
07.09.2014 09:00 16,9 C 82 % 1014,7 hPa 0,0 l/m 0,2 km/h N 13,8 C 16,9 C 3,2 km/h
07.09.2014 10:00 18,7 C 81 % 1014,8 hPa 0,0 l/m 0,4 km/h N 15,4 C 18,7 C 5,2 km/h
07.09.2014 11:00 19,5 C 78 % 1015,1 hPa 0,0 l/m 1,2 km/h N 15,4 C 19,5 C 6,4 km/h
07.09.2014 12:00 20,2 C 76 % 1015,0 hPa 0,0 l/m 0,5 km/h N 15,8 C 20,2 C 4,4 km/h
07.09.2014 13:00 21,1 C 77 % 1014,8 hPa 0,0 l/m 0,3 km/h N 16,8 C 21,1 C 4,0 km/h
07.09.2014 14:00 21,8 C 76 % 1014,6 hPa 0,0 l/m 0,5 km/h N 17,3 C 21,8 C 6,0 km/h
07.09.2014 15:00 21,1 C 77 % 1014,3 hPa 0,0 l/m 1,3 km/h N 16,9 C 21,1 C 9,6 km/h
07.09.2014 16:00 21,1 C 77 % 1014,0 hPa 0,0 l/m 0,7 km/h N 16,9 C 21,1 C 5,6 km/h
07.09.2014 17:00 21,4 C 77 % 1013,9 hPa 0,0 l/m 0,1 km/h N 17,1 C 21,4 C 2,0 km/h
07.09.2014 18:00 21,3 C 78 % 1013,8 hPa 0,0 l/m 0,0 km/h N 17,4 C 21,3 C 0,0 km/h
07.09.2014 19:00 20,0 C 80 % 1013,9 hPa 0,0 l/m 0,0 km/h N 16,5 C 20,0 C 0,8 km/h
07.09.2014 20:00 18,5 C 82 % 1014,4 hPa 0,0 l/m 0,0 km/h N 15,3 C 18,5 C 0,0 km/h
07.09.2014 21:00 17,2 C 84 % 1014,9 hPa 0,0 l/m 0,0 km/h N 14,3 C 17,2 C 0,0 km/h
07.09.2014 22:00 16,2 C 84 % 1015,0 hPa 0,0 l/m 0,0 km/h N 13,5 C 16,2 C 0,0 km/h
07.09.2014 23:00 15,6 C 84 % 1014,9 hPa 0,0 l/m 0,0 km/h N 12,8 C 15,6 C 0,0 km/h
Min-Datum _ 01.09.14 05.09.14 01.09.14 - 04.09.14 - 01.09.14 02.09.14 04.09.14
_ Min-Zeit 05:15 13:15 02:45 - 19:00 - 06:00 02:45 19:00
Minimum _ 12,6 C 61 % 1010,2 hPa - 0,0 km/h - 9,8 C 9,0 C 0,0 km/h
Max-Datum _ 05.09.14 02.09.14 03.09.14 01.09.14 02.09.14 - 04.09.14 05.09.14 02.09.14
_ Max-Zeit 14:15 17:15 11:00 10:15 02:45 - 16:30 14:15 02:45
Maximum _ 25,4 C 86 % 1018,4 hPa 1,8 l/m 18,0 km/h
N
- 18,6 C 25,4 C 40,2 km/h
N
Durchschnitt _ 17,0 C 80 % 1015,1 hPa #27,3 l/m 4,7 km/h N 13,6 C 16,3 C 13,2 km/h